createdAt,value
2023-02-17T00:01:27.172Z,99240.72
2023-02-17T00:03:54.381Z,99245.97
2023-02-17T00:06:23.924Z,99245.75
2023-02-17T00:08:50.636Z,99243.59
2023-02-17T00:11:18.277Z,99242.53
2023-02-17T00:13:45.610Z,99235.31
2023-02-17T00:16:18.870Z,99245.00
2023-02-17T00:18:46.466Z,99235.94
2023-02-17T00:21:16.749Z,99246.56
2023-02-17T00:23:43.441Z,99237.41
2023-02-17T00:26:10.049Z,99237.97
2023-02-17T00:28:36.855Z,99245.25
2023-02-17T00:31:13.656Z,99230.91
2023-02-17T00:33:40.505Z,99237.09
2023-02-17T00:36:10.611Z,99245.22
2023-02-17T00:38:37.289Z,99240.19
2023-02-17T00:41:06.643Z,99235.22
2023-02-17T00:43:33.188Z,99250.16
2023-02-17T00:46:00.148Z,99255.16
2023-02-17T00:48:26.743Z,99252.13
2023-02-17T00:50:53.267Z,99244.47
2023-02-17T00:53:20.509Z,99239.50
2023-02-17T00:55:47.173Z,99242.16
2023-02-17T00:58:14.160Z,99250.25
2023-02-17T01:00:40.674Z,99229.47
2023-02-17T01:03:08.173Z,99233.31
2023-02-17T01:05:34.973Z,99230.63
2023-02-17T01:08:01.479Z,99232.22
2023-02-17T01:10:28.032Z,99238.53
2023-02-17T01:12:54.612Z,99236.19
2023-02-17T01:15:21.122Z,99221.44
2023-02-17T01:17:47.676Z,99236.66
2023-02-17T01:20:14.891Z,99237.19
2023-02-17T01:22:41.489Z,99249.56
2023-02-17T01:25:11.217Z,99245.59
2023-02-17T01:27:40.623Z,99239.03
2023-02-17T01:30:08.803Z,99250.97
2023-02-17T01:32:39.717Z,99253.03
2023-02-17T01:35:06.609Z,99256.31
2023-02-17T01:37:33.804Z,99242.78
2023-02-17T01:40:00.339Z,99236.31
2023-02-17T01:42:27.025Z,99250.88
2023-02-17T01:45:18.454Z,99262.25
2023-02-17T01:48:06.243Z,99255.50
2023-02-17T01:50:36.936Z,99246.34
2023-02-17T01:53:07.536Z,99248.53
2023-02-17T01:55:35.948Z,99258.47
2023-02-17T01:58:04.875Z,99250.78
2023-02-17T02:00:33.480Z,99237.94
2023-02-17T02:03:02.259Z,99244.22
2023-02-17T02:05:29.401Z,99235.72
2023-02-17T02:07:56.992Z,99236.56
2023-02-17T02:10:24.753Z,99227.06
2023-02-17T02:12:51.285Z,99224.81
2023-02-17T02:15:21.276Z,99211.66
2023-02-17T02:18:16.136Z,99227.38
2023-02-17T02:21:12.425Z,99225.75
2023-02-17T02:24:06.418Z,99224.94
2023-02-17T02:26:56.658Z,99213.72
2023-02-17T02:30:02.272Z,99221.66
2023-02-17T02:32:49.666Z,99229.84
2023-02-17T02:35:37.660Z,99230.53
2023-02-17T02:38:17.073Z,99223.72
2023-02-17T02:40:49.878Z,99225.78
2023-02-17T02:43:17.087Z,99225.13
2023-02-17T02:45:46.390Z,99225.50
2023-02-17T02:48:16.027Z,99226.16
2023-02-17T02:51:30.674Z,99225.72
2023-02-17T02:54:00.137Z,99232.00
2023-02-17T02:57:04.394Z,99236.38
2023-02-17T03:00:05.663Z,99229.75
2023-02-17T03:02:47.450Z,99230.41
2023-02-17T03:05:18.737Z,99233.78
2023-02-17T03:07:54.795Z,99229.94
2023-02-17T03:10:22.201Z,99227.75
2023-02-17T03:12:48.865Z,99226.09
2023-02-17T03:15:30.224Z,99226.94
2023-02-17T03:17:58.504Z,99220.09
2023-02-17T03:20:36.147Z,99219.63
2023-02-17T03:23:04.335Z,99231.59
2023-02-17T03:25:30.855Z,99224.66
2023-02-17T03:27:57.653Z,99218.91
2023-02-17T03:30:24.195Z,99212.41
2023-02-17T03:32:50.744Z,99221.19
2023-02-17T03:35:17.315Z,99215.75
2023-02-17T03:37:45.879Z,99215.38
2023-02-17T03:40:12.399Z,99216.59
2023-02-17T03:42:38.942Z,99207.31
2023-02-17T03:45:05.862Z,99220.59
2023-02-17T03:47:32.517Z,99219.38
2023-02-17T03:49:59.040Z,99220.19
2023-02-17T03:52:25.527Z,99219.69
2023-02-17T03:54:52.673Z,99210.44
2023-02-17T03:57:19.159Z,99215.50
2023-02-17T03:59:48.647Z,99222.47
2023-02-17T04:02:17.426Z,99221.78
2023-02-17T04:04:43.921Z,99230.41
2023-02-17T04:07:10.496Z,99222.75
2023-02-17T04:09:36.963Z,99237.94
2023-02-17T04:12:03.695Z,99238.56
2023-02-17T04:14:30.182Z,99241.31
2023-02-17T04:16:56.664Z,99237.59
2023-02-17T04:19:23.140Z,99229.94
2023-02-17T04:21:49.623Z,99240.47
2023-02-17T04:24:18.515Z,99241.44
2023-02-17T04:26:45.042Z,99231.22
2023-02-17T04:29:11.592Z,99234.13
2023-02-17T04:31:38.213Z,99239.00
2023-02-17T04:34:04.839Z,99224.88
2023-02-17T04:36:31.466Z,99239.84
2023-02-17T04:38:57.976Z,99239.13
2023-02-17T04:41:24.467Z,99232.16
2023-02-17T04:43:50.946Z,99231.22
2023-02-17T04:46:20.033Z,99238.63
2023-02-17T04:48:46.638Z,99233.47
2023-02-17T04:51:13.128Z,99227.13
2023-02-17T04:53:39.622Z,99235.97
2023-02-17T04:56:06.887Z,99238.19
2023-02-17T04:58:33.521Z,99237.31
2023-02-17T05:01:00.930Z,99252.47
2023-02-17T05:03:27.537Z,99233.28
2023-02-17T05:05:54.079Z,99237.25
2023-02-17T05:08:22.095Z,99237.59
2023-02-17T05:10:51.518Z,99243.84
2023-02-17T05:13:21.170Z,99225.47
2023-02-17T05:15:47.835Z,99246.09
2023-02-17T05:18:14.397Z,99239.00
2023-02-17T05:20:41.054Z,99233.97
2023-02-17T05:23:07.534Z,99232.31
2023-02-17T05:25:34.044Z,99230.75
2023-02-17T05:28:00.648Z,99230.66
2023-02-17T05:30:27.277Z,99206.16
2023-02-17T05:32:56.527Z,99226.00
2023-02-17T05:35:23.068Z,99227.81
2023-02-17T05:37:52.754Z,99226.06
2023-02-17T05:40:21.723Z,99222.66
2023-02-17T05:42:48.233Z,99217.56
2023-02-17T05:45:14.720Z,99227.09
2023-02-17T05:47:41.197Z,99233.22
2023-02-17T05:50:08.160Z,99230.34
2023-02-17T05:52:34.653Z,99236.00
2023-02-17T05:55:01.150Z,99236.91
2023-02-17T05:57:27.754Z,99239.66
2023-02-17T05:59:54.247Z,99229.94
2023-02-17T06:02:23.751Z,99232.78
2023-02-17T06:04:52.586Z,99233.06
2023-02-17T06:07:22.454Z,99227.78
2023-02-17T06:09:48.938Z,99216.78
2023-02-17T06:12:15.456Z,99232.91
2023-02-17T06:14:41.942Z,99235.38
2023-02-17T06:17:08.518Z,99228.09
2023-02-17T06:19:35.056Z,99238.09
2023-02-17T06:22:01.575Z,99236.19
2023-02-17T06:24:28.134Z,99243.09
2023-02-17T06:26:54.641Z,99237.22
2023-02-17T06:29:24.620Z,99246.13
2023-02-17T06:31:56.849Z,99231.13
2023-02-17T06:34:23.451Z,99243.06
2023-02-17T06:36:52.927Z,99245.97
2023-02-17T06:39:21.830Z,99240.00
2023-02-17T06:41:48.490Z,99240.56
2023-02-17T06:44:14.998Z,99234.13
2023-02-17T06:46:41.580Z,99233.38
2023-02-17T06:49:08.081Z,99256.66
2023-02-17T06:51:34.569Z,99255.59
2023-02-17T06:54:01.075Z,99269.91
2023-02-17T06:56:27.607Z,99265.72
2023-02-17T06:58:54.189Z,99272.09
2023-02-17T07:01:28.434Z,99273.56
2023-02-17T07:03:55.912Z,99278.13
2023-02-17T07:06:24.171Z,99270.22
2023-02-17T07:08:53.896Z,99263.88
2023-02-17T07:11:21.298Z,99284.31
2023-02-17T07:13:48.399Z,99270.84
2023-02-17T07:16:16.361Z,99283.69
2023-02-17T07:18:43.036Z,99284.91
2023-02-17T07:21:10.162Z,99295.16
2023-02-17T07:23:37.126Z,99307.16
2023-02-17T07:26:06.708Z,99313.66
2023-02-17T07:28:33.403Z,99304.91
2023-02-17T07:31:09.087Z,99311.28
2023-02-17T07:33:35.726Z,99305.31
2023-02-17T07:36:07.406Z,99316.72
2023-02-17T07:38:34.393Z,99306.38
2023-02-17T07:41:23.326Z,99318.84
2023-02-17T07:43:51.747Z,99309.09
2023-02-17T07:46:18.410Z,99295.41
2023-02-17T07:48:46.512Z,99314.00
2023-02-17T07:51:18.948Z,99307.09
2023-02-17T07:53:45.540Z,99309.34
2023-02-17T07:56:15.583Z,99320.94
2023-02-17T07:58:43.662Z,99327.22
2023-02-17T08:01:12.800Z,99319.50
2023-02-17T08:03:40.063Z,99326.97
2023-02-17T08:06:15.502Z,99325.00
2023-02-17T08:09:17.639Z,99309.28
2023-02-17T08:12:02.763Z,99319.63
2023-02-17T08:14:31.516Z,99289.38
2023-02-17T08:16:58.649Z,99313.44
2023-02-17T08:19:27.193Z,99315.56
2023-02-17T08:21:56.590Z,99332.38
2023-02-17T08:24:24.709Z,99322.38
2023-02-17T08:26:54.022Z,99326.44
2023-02-17T08:29:24.095Z,99332.13
2023-02-17T08:31:53.817Z,99306.19
2023-02-17T08:34:21.670Z,99331.34
2023-02-17T08:36:48.252Z,99320.69
2023-02-17T08:39:17.452Z,99317.22
2023-02-17T08:41:45.034Z,99337.81
2023-02-17T08:44:16.293Z,99332.38
2023-02-17T08:46:44.695Z,99336.63
2023-02-17T08:49:11.598Z,99343.97
2023-02-17T08:51:38.374Z,99344.59
2023-02-17T08:54:07.297Z,99344.53
2023-02-17T08:56:34.799Z,99347.28
2023-02-17T08:59:01.607Z,99339.13
2023-02-17T09:01:28.244Z,99343.72
2023-02-17T09:03:57.269Z,99341.75
2023-02-17T09:06:24.134Z,99354.91
2023-02-17T09:08:54.732Z,99343.06
2023-02-17T09:11:22.066Z,99346.97
2023-02-17T09:13:48.644Z,99330.53
2023-02-17T09:16:15.424Z,99350.66
2023-02-17T09:18:42.084Z,99342.84
2023-02-17T09:21:11.038Z,99359.03
2023-02-17T09:23:37.863Z,99357.38
2023-02-17T09:26:07.412Z,99353.72
2023-02-17T09:28:34.517Z,99355.84
2023-02-17T09:31:25.710Z,99356.09
2023-02-17T09:33:52.882Z,99331.78
2023-02-17T09:36:28.356Z,99360.97
2023-02-17T09:38:55.728Z,99351.06
2023-02-17T09:41:24.311Z,99352.19
2023-02-17T09:43:55.720Z,99358.44
2023-02-17T09:46:36.585Z,99360.00
2023-02-17T09:49:17.675Z,99372.13
2023-02-17T09:51:53.685Z,99367.66
2023-02-17T09:54:46.030Z,99373.09
2023-02-17T09:57:21.815Z,99364.25
2023-02-17T09:59:54.118Z,99374.34
2023-02-17T10:02:40.478Z,99377.34
2023-02-17T10:05:11.460Z,99361.84
2023-02-17T10:07:52.075Z,99377.97
2023-02-17T10:10:24.121Z,99375.91
2023-02-17T10:12:56.052Z,99364.44
2023-02-17T10:15:26.557Z,99372.94
2023-02-17T10:18:16.237Z,99382.03
2023-02-17T10:20:49.005Z,99361.16
2023-02-17T10:23:24.764Z,99368.53
2023-02-17T10:26:16.371Z,99372.88
2023-02-17T10:29:01.917Z,99388.91
2023-02-17T10:31:47.220Z,99379.91
2023-02-17T10:34:32.521Z,99382.94
2023-02-17T10:37:31.079Z,99387.28
2023-02-17T10:39:58.662Z,99388.25
2023-02-17T10:42:35.883Z,99387.81
2023-02-17T10:45:15.418Z,99390.47
2023-02-17T10:47:42.390Z,99384.63
2023-02-17T10:50:22.171Z,99367.22
2023-02-17T10:52:52.046Z,99362.06
2023-02-17T10:55:36.998Z,99386.91
2023-02-17T10:58:24.969Z,99389.22
2023-02-17T11:00:56.448Z,99384.97
2023-02-17T11:03:28.547Z,99385.53
2023-02-17T11:05:56.578Z,99381.59
2023-02-17T11:08:32.408Z,99378.66
2023-02-17T11:11:07.057Z,99375.91
2023-02-17T11:13:40.324Z,99377.53
2023-02-17T11:16:07.533Z,99366.84
2023-02-17T11:18:49.327Z,99364.88
2023-02-17T11:21:15.912Z,99365.00
2023-02-17T11:24:01.434Z,99358.03
2023-02-17T11:26:31.344Z,99373.06
2023-02-17T11:29:15.815Z,99364.72
2023-02-17T11:31:42.551Z,99368.56
2023-02-17T11:34:16.822Z,99359.34
2023-02-17T11:36:57.001Z,99335.09
2023-02-17T11:39:23.585Z,99340.56
2023-02-17T11:41:52.597Z,99357.22
2023-02-17T11:44:27.319Z,99355.78
2023-02-17T11:47:12.912Z,99343.38
2023-02-17T11:50:11.253Z,99352.97
2023-02-17T11:53:02.134Z,99359.41
2023-02-17T11:55:48.884Z,99367.16
2023-02-17T11:58:44.664Z,99362.28
2023-02-17T12:01:26.274Z,99360.78
2023-02-17T12:03:58.807Z,99351.16
2023-02-17T12:06:53.400Z,99354.53
2023-02-17T12:09:47.679Z,99349.63
2023-02-17T12:12:17.379Z,99349.16
2023-02-17T12:15:26.043Z,99340.41
2023-02-17T12:18:33.834Z,99340.78
2023-02-17T12:21:19.488Z,99338.75
2023-02-17T12:24:05.505Z,99340.06
2023-02-17T12:26:45.433Z,99339.78
2023-02-17T12:29:41.383Z,99340.16
2023-02-17T12:32:27.692Z,99331.22
2023-02-17T12:34:59.479Z,99335.00
2023-02-17T12:37:31.679Z,99339.44
2023-02-17T12:40:06.027Z,99330.03
2023-02-17T12:42:41.410Z,99323.94
2023-02-17T12:45:23.304Z,99319.97
2023-02-17T12:47:56.311Z,99338.81
2023-02-17T12:50:27.982Z,99320.72
2023-02-17T12:52:59.517Z,99329.72
2023-02-17T12:55:37.855Z,99331.84
2023-02-17T12:58:12.260Z,99340.88
2023-02-17T13:00:46.595Z,99338.22
2023-02-17T13:03:13.460Z,99348.72
2023-02-17T13:05:43.600Z,99338.38
2023-02-17T13:11:11.109Z,99338.38
2023-02-17T13:13:37.723Z,99323.13
2023-02-17T13:16:13.039Z,99316.25
2023-02-17T13:18:45.980Z,99329.50
2023-02-17T13:21:16.246Z,99314.94
2023-02-17T13:23:45.840Z,99325.03
2023-02-17T13:26:20.629Z,99327.38
2023-02-17T13:28:49.057Z,99321.19
2023-02-17T13:31:25.038Z,99302.91
2023-02-17T13:33:55.107Z,99311.13
2023-02-17T13:36:36.681Z,99309.56
2023-02-17T13:39:28.798Z,99313.41
2023-02-17T13:41:59.951Z,99310.28
2023-02-17T13:44:32.422Z,99309.75
2023-02-17T13:47:03.150Z,99294.38
2023-02-17T13:49:33.945Z,99297.88
2023-02-17T13:52:23.339Z,99285.22
2023-02-17T13:54:57.526Z,99292.41
2023-02-17T13:57:29.852Z,99287.63
2023-02-17T14:00:19.560Z,99286.28
2023-02-17T14:02:58.094Z,99271.94
2023-02-17T14:05:28.000Z,99291.78
2023-02-17T14:08:00.352Z,99264.41
2023-02-17T14:10:30.630Z,99290.78
2023-02-17T14:12:59.245Z,99286.28
2023-02-17T14:15:28.898Z,99284.28
2023-02-17T14:17:58.299Z,99291.28
2023-02-17T14:20:35.202Z,99286.47
2023-02-17T14:23:05.962Z,99281.44
2023-02-17T14:25:38.232Z,99269.97
2023-02-17T14:28:17.298Z,99283.81
2023-02-17T14:30:43.941Z,99263.56
2023-02-17T14:33:16.384Z,99277.59
2023-02-17T14:35:52.037Z,99282.22
2023-02-17T14:38:25.060Z,99274.22
2023-02-17T14:40:53.472Z,99284.22
2023-02-17T14:43:20.207Z,99281.81
2023-02-17T14:45:49.792Z,99281.66
2023-02-17T14:48:16.292Z,99283.84
2023-02-17T14:50:44.273Z,99277.72
2023-02-17T14:53:32.699Z,99278.94
2023-02-17T14:56:01.902Z,99283.75
2023-02-17T14:58:29.403Z,99289.28
2023-02-17T15:00:58.678Z,99235.81
2023-02-17T15:03:27.614Z,99251.91
2023-02-17T15:05:54.711Z,99285.13
2023-02-17T15:08:34.926Z,99292.09
2023-02-17T15:11:02.423Z,99294.94
2023-02-17T15:13:29.249Z,99294.56
2023-02-17T15:15:56.149Z,99285.50
2023-02-17T15:18:23.156Z,99285.50
2023-02-17T15:20:51.601Z,99298.28
2023-02-17T15:23:21.178Z,99295.50
2023-02-17T15:25:48.594Z,99284.91
2023-02-17T15:28:17.618Z,99286.19
2023-02-17T15:30:51.709Z,99275.09
2023-02-17T15:33:18.566Z,99288.75
2023-02-17T15:35:46.109Z,99297.72
2023-02-17T15:38:14.254Z,99287.25
2023-02-17T15:40:42.066Z,99290.97
2023-02-17T15:43:16.994Z,99298.44
2023-02-17T15:45:43.583Z,99291.63
2023-02-17T15:48:25.222Z,99297.03
2023-02-17T15:50:52.665Z,99294.75
2023-02-17T15:53:19.735Z,99303.03
2023-02-17T15:55:47.244Z,99310.53
2023-02-17T15:58:19.385Z,99313.91
2023-02-17T16:00:46.545Z,99302.53
2023-02-17T16:03:14.609Z,99323.31
2023-02-17T16:05:41.953Z,99314.16
2023-02-17T16:08:08.962Z,99316.50
2023-02-17T16:10:35.929Z,99322.47
2023-02-17T16:13:04.719Z,99317.97
2023-02-17T16:15:32.831Z,99323.44
2023-02-17T16:17:59.953Z,99319.25
2023-02-17T16:20:34.655Z,99318.72
2023-02-17T16:23:02.398Z,99313.78
2023-02-17T16:25:29.965Z,99325.66
2023-02-17T16:27:57.799Z,99314.38
2023-02-17T16:30:34.223Z,99308.38
2023-02-17T16:33:02.072Z,99315.34
2023-02-17T16:35:30.978Z,99320.22
2023-02-17T16:38:05.392Z,99316.44
2023-02-17T16:40:36.482Z,99325.03
2023-02-17T16:43:03.272Z,99316.59
2023-02-17T16:45:32.714Z,99319.25
2023-02-17T16:48:01.235Z,99342.47
2023-02-17T16:50:33.942Z,99333.53
2023-02-17T16:53:03.956Z,99330.03
2023-02-17T16:55:33.106Z,99343.50
2023-02-17T16:58:00.350Z,99335.81
2023-02-17T17:00:32.668Z,99337.41
2023-02-17T17:02:59.498Z,99332.56
2023-02-17T17:05:29.053Z,99330.88
2023-02-17T17:07:59.826Z,99340.59
2023-02-17T17:10:29.202Z,99329.06
2023-02-17T17:12:58.531Z,99334.28
2023-02-17T17:15:28.983Z,99346.69
2023-02-17T17:18:04.819Z,99347.44
2023-02-17T17:20:37.243Z,99356.53
2023-02-17T17:23:06.634Z,99344.84
2023-02-17T17:25:35.408Z,99350.00
2023-02-17T17:28:01.891Z,99364.13
2023-02-17T17:30:32.037Z,99349.44
2023-02-17T17:32:59.211Z,99358.03
2023-02-17T17:35:30.243Z,99351.31
2023-02-17T17:38:01.173Z,99373.38
2023-02-17T17:40:48.264Z,99366.53
2023-02-17T17:43:17.288Z,99356.88
2023-02-17T17:45:45.318Z,99364.72
2023-02-17T17:48:17.034Z,99349.66
2023-02-17T17:50:44.592Z,99359.19
2023-02-17T17:53:11.251Z,99363.41
2023-02-17T17:55:37.792Z,99360.47
2023-02-17T17:58:04.395Z,99371.03
2023-02-17T18:00:31.293Z,99360.16
2023-02-17T18:03:00.886Z,99366.47
2023-02-17T18:05:30.729Z,99359.22
2023-02-17T18:07:59.225Z,99367.75
2023-02-17T18:10:27.942Z,99379.34
2023-02-17T18:12:54.563Z,99378.53
2023-02-17T18:15:21.322Z,99370.28
2023-02-17T18:17:49.213Z,99363.13
2023-02-17T18:20:16.000Z,99370.69
2023-02-17T18:22:42.656Z,99384.94
2023-02-17T18:25:09.319Z,99378.06
2023-02-17T18:27:45.565Z,99380.06
2023-02-17T18:30:16.059Z,99353.41
2023-02-17T18:32:44.284Z,99382.31
2023-02-17T18:35:13.698Z,99382.75
2023-02-17T18:37:43.992Z,99372.13
2023-02-17T18:40:12.753Z,99376.47
2023-02-17T18:42:40.954Z,99387.03
2023-02-17T18:45:08.954Z,99392.09
2023-02-17T18:47:35.706Z,99387.06
2023-02-17T18:50:02.269Z,99397.56
2023-02-17T18:52:29.655Z,99390.69
2023-02-17T18:55:14.455Z,99365.13
2023-02-17T18:57:59.935Z,99346.75
2023-02-17T19:00:33.081Z,99359.53
2023-02-17T19:03:00.055Z,99398.78
2023-02-17T19:05:31.279Z,99404.41
2023-02-17T19:08:00.712Z,99388.03
2023-02-17T19:10:30.618Z,99394.63
2023-02-17T19:12:58.617Z,99396.72
2023-02-17T19:15:25.523Z,99398.66
2023-02-17T19:18:04.141Z,99407.91
2023-02-17T19:20:33.730Z,99392.25
2023-02-17T19:23:02.365Z,99384.56
2023-02-17T19:25:31.742Z,99391.97
2023-02-17T19:28:02.239Z,99393.78
2023-02-17T19:30:31.965Z,99391.41
2023-02-17T19:33:01.538Z,99392.13
2023-02-17T19:35:30.359Z,99399.09
2023-02-17T19:37:56.871Z,99394.06
2023-02-17T19:40:23.355Z,99400.19
2023-02-17T19:42:49.850Z,99390.41
2023-02-17T19:45:16.626Z,99404.78
2023-02-17T19:47:43.086Z,99394.63
2023-02-17T19:50:09.747Z,99366.16
2023-02-17T19:52:37.779Z,99398.53
2023-02-17T19:55:05.047Z,99394.47
2023-02-17T19:57:31.705Z,99388.34
2023-02-17T19:59:58.279Z,99404.41
2023-02-17T20:02:24.908Z,99394.50
2023-02-17T20:04:51.461Z,99383.19
2023-02-17T20:07:18.027Z,99390.44
2023-02-17T20:09:44.571Z,99397.31
2023-02-17T20:12:11.217Z,99396.75
2023-02-17T20:14:38.534Z,99389.06
2023-02-17T20:17:05.305Z,99384.88
2023-02-17T20:19:38.562Z,99409.31
2023-02-17T20:22:06.558Z,99400.78
2023-02-17T20:24:33.961Z,99400.78
2023-02-17T20:27:03.551Z,99399.53
2023-02-17T20:29:34.310Z,99387.66
2023-02-17T20:32:05.625Z,99379.56
2023-02-17T20:34:39.309Z,99399.69
2023-02-17T20:37:07.058Z,99402.16
2023-02-17T20:39:38.925Z,99385.13
2023-02-17T20:42:05.882Z,99405.25
2023-02-17T20:44:32.709Z,99401.34
2023-02-17T20:47:02.164Z,99385.97
2023-02-17T20:49:31.051Z,99377.91
2023-02-17T20:51:57.711Z,99395.91
2023-02-17T20:54:25.581Z,99401.34
2023-02-17T20:56:52.447Z,99400.94
2023-02-17T20:59:19.129Z,99396.47
2023-02-17T21:01:45.991Z,99402.47
2023-02-17T21:04:14.115Z,99403.44
2023-02-17T21:06:41.414Z,99400.66
2023-02-17T21:09:13.905Z,99402.19
2023-02-17T21:11:40.957Z,99397.72
2023-02-17T21:14:07.874Z,99396.75
2023-02-17T21:16:34.509Z,99384.44
2023-02-17T21:19:04.662Z,99399.69
2023-02-17T21:21:34.540Z,99394.94
2023-02-17T21:24:04.359Z,99384.16
2023-02-17T21:26:33.014Z,99399.81
2023-02-17T21:29:01.984Z,99407.91
2023-02-17T21:31:34.597Z,99392.97
2023-02-17T21:34:04.545Z,99394.78
2023-02-17T21:36:33.899Z,99393.66
2023-02-17T21:39:04.614Z,99389.91
2023-02-17T21:41:34.043Z,99395.91
2023-02-17T21:44:20.303Z,99397.84
2023-02-17T21:46:46.919Z,99394.50
2023-02-17T21:49:14.243Z,99401.91
2023-02-17T21:51:41.453Z,99404.72
2023-02-17T21:54:09.586Z,99390.59
2023-02-17T21:56:36.477Z,99404.44
2023-02-17T21:59:06.102Z,99401.50
2023-02-17T22:01:35.452Z,99382.91
2023-02-17T22:04:04.951Z,99385.97
2023-02-17T22:06:36.396Z,99379.28
2023-02-17T22:09:08.576Z,99407.06
2023-02-17T22:11:38.554Z,99393.09
2023-02-17T22:14:10.102Z,99388.22
2023-02-17T22:16:38.092Z,99393.66
2023-02-17T22:19:07.025Z,99397.72
2023-02-17T22:21:36.573Z,99395.75
2023-02-17T22:24:04.108Z,99388.75
2023-02-17T22:26:33.942Z,99394.50
2023-02-17T22:29:00.486Z,99398.53
2023-02-17T22:31:29.525Z,99395.19
2023-02-17T22:33:57.926Z,99397.16
2023-02-17T22:36:25.176Z,99396.31
2023-02-17T22:38:52.614Z,99403.28
2023-02-17T22:41:21.582Z,99408.59
2023-02-17T22:43:49.171Z,99408.75
2023-02-17T22:46:18.511Z,99408.03
2023-02-17T22:48:47.872Z,99414.47
2023-02-17T22:51:18.365Z,99397.16
2023-02-17T22:53:45.802Z,99419.78
2023-02-17T22:56:12.882Z,99418.66
2023-02-17T22:58:40.364Z,99419.09
2023-02-17T23:01:13.172Z,99420.91
2023-02-17T23:03:40.719Z,99418.53
2023-02-17T23:06:12.527Z,99410.97
2023-02-17T23:08:39.553Z,99406.09
2023-02-17T23:11:11.408Z,99417.84
2023-02-17T23:13:38.635Z,99411.41
2023-02-17T23:16:09.633Z,99414.19
2023-02-17T23:18:39.190Z,99399.53
2023-02-17T23:21:12.933Z,99404.69
2023-02-17T23:23:40.002Z,99409.59
2023-02-17T23:26:09.064Z,99407.50
2023-02-17T23:28:39.478Z,99404.28
2023-02-17T23:31:10.178Z,99408.47
2023-02-17T23:33:39.542Z,99403.03
2023-02-17T23:36:10.604Z,99392.97
2023-02-17T23:38:40.317Z,99396.88
2023-02-17T23:41:10.852Z,99406.66
2023-02-17T23:43:41.252Z,99404.03
2023-02-17T23:46:10.808Z,99407.47
2023-02-17T23:48:39.207Z,99411.53
2023-02-17T23:51:05.913Z,99414.59
2023-02-17T23:53:32.983Z,99412.63
2023-02-17T23:56:11.398Z,99399.81
2023-02-17T23:58:41.632Z,99410.84
